Terminal Aerodrome Forecast
Issued by NWS Green Bay, WI

Home | Current Version | Previous Version | Text Only | Print | Product List | Glossary Off
Versions: 1 2 3 4 5 6 7 8 9 10 11 12 13 14 15 16 17 18 19 20 21 22 23 24 25 26 27 28 29 30 31 32 33 34 35 36 37 38 39 40 41 42

000
FTUS43 KGRB 211135
TAFGRB
TAF
KGRB 211135Z 2112/2212 00000KT 3SM BR OVC250
      TEMPO 2112/2114 1 1/2SM BR
     FM211500 VRB03KT 6SM BR BKN250
     FM212200 06005KT P6SM OVC080
     FM220500 04010KT 6SM -RASN BR OVC012
     FM220800 03012KT 1SM -RASN BR OVC005=

USA.gov is the U.S. government's official web portal to all federal, state and local government web resources and services.